18:54
Airports
Links
Donate
Help keep this website running!
PayPal
Bitcoin
METAR
RJTL 221757Z 04006KT 350V080 4000 -SHRA BR FEW008 SCT025 BKN050 20/19 Q1014 RMK 2ST008 3CU025 7SC050 A2996
Current Weather Conditions at RJTL
IFR 17:57:00 22-09-17
Altimeter:29.94 hg
Temp:20.0°c 68°f
Dew point:19.0°c 66°f
Wind:6 knots, 6.9 mph, 3 m/s, from 40°
Visibility:2.49 statute miles
5000(BKN) Broken
2500(SCT) Scattered
800(FEW) A few
Past METAR reports
MVFR 17:05:00 22-09-17
Altimeter:29.91 hg
Temp:20.0°c 68°f
Dew point:19.0°c 66°f
Wind:7 knots, 8.1 mph, 4 m/s, from 20°
Visibility:3.04 statute miles
6000(BKN) Broken
2000(SCT) Scattered
800(FEW) A few
RJTL 221705Z 02007KT 330V100 4900 SHRA BR FEW008 SCT020 BKN060 20/19 Q1013 RMK 2ST008 4CU020 7SC060 A2994
MVFR 16:18:00 22-09-17
Altimeter:29.94 hg
Temp:20.0°c 68°f
Dew point:20.0°c 68°f
Wind:9 knots, 10.4 mph, 5 m/s, from 40°
Visibility:3.11 statute miles
6000(BKN) Broken
2000(BKN) Broken
800(FEW) A few
RJTL 221618Z 04009KT 360V070 5000 -SHRA BR FEW008 BKN020 BKN060 20/20 Q1014 RMK 2ST008 5CU020 7SC060 A2995
MVFR 16:10:00 22-09-17
Altimeter:29.94 hg
Temp:20.0°c 68°f
Dew point:20.0°c 68°f
Wind:7 knots, 8.1 mph, 4 m/s, from 40°
Visibility:3.04 statute miles
6000(BKN) Broken
2000(BKN) Broken
1000(FEW) A few
RJTL 221610Z 04007KT 4900 SHRA BR FEW010 BKN020 BKN060 20/20 Q1014 RMK 2CU010 5CU020 7SC060 A2996
TAF
No TAF for RJTL
Forecast at RJTL
No Forecast Reports for RJTL